Time;durP1;ratioP1;P1;durP2;ratioP2;P2;SDS_P1;SDS_P2;PMS_P1;PMS_P2;Temp;Humidity;BMP_temperature;BMP_pressure;BME280_temperature;BME280_humidity;BME280_pressure;Samples;Min_cycle;Max_cycle;Signal;HPM_P1;HPM_P2
2024/04/07 00:01:15;;;;;;;8.10;7.50;;;16.60;1.00;;;;;;5112905;27;20572;-76
2024/04/07 00:03:42;;;;;;;9.57;8.70;;;16.60;1.00;;;;;;5110280;27;20464;-76
2024/04/07 00:06:09;;;;;;;10.23;9.13;;;16.60;1.00;;;;;;5113985;27;21319;-76
2024/04/07 00:08:37;;;;;;;10.13;8.77;;;16.60;1.00;;;;;;5114755;27;20469;-76
2024/04/07 00:11:03;;;;;;;11.90;10.80;;;16.60;1.00;;;;;;5107511;28;20450;-76
2024/04/07 00:13:30;;;;;;;12.53;10.60;;;16.50;1.00;;;;;;5113906;27;20449;-77
2024/04/07 00:15:58;;;;;;;11.07;9.97;;;16.40;1.00;;;;;;5111584;27;20542;-76
2024/04/07 00:18:25;;;;;;;17.67;15.93;;;16.40;1.00;;;;;;5110007;27;20464;-75
2024/04/07 00:21:00;;;;;;;13.53;12.20;;;16.40;1.00;;;;;;5095458;28;20456;-79
2024/04/07 00:23:27;;;;;;;17.33;15.70;;;16.40;1.00;;;;;;5114798;28;20503;-81
2024/04/07 00:25:53;;;;;;;30.13;26.67;;;16.40;1.00;;;;;;5113561;27;20461;-81
2024/04/07 00:28:20;;;;;;;21.20;19.10;;;16.30;1.00;;;;;;5112201;27;20887;-79
2024/04/07 00:30:46;;;;;;;31.30;28.20;;;16.30;1.00;;;;;;5109079;27;20485;-80
2024/04/07 00:33:15;;;;;;;18.10;16.13;;;16.30;1.00;;;;;;5113701;28;20470;-78
2024/04/07 00:35:41;;;;;;;11.13;10.13;;;16.30;1.00;;;;;;5111002;27;20458;-81
2024/04/07 00:38:08;;;;;;;9.40;8.60;;;16.30;1.00;;;;;;5110928;27;20541;-80
2024/04/07 00:40:38;;;;;;;20.07;18.07;;;16.20;1.00;;;;;;5104490;27;20510;-82
2024/04/07 00:43:07;;;;;;;32.33;29.07;;;16.30;1.00;;;;;;5110787;27;20462;-80
2024/04/07 00:45:33;;;;;;;28.87;25.77;;;16.30;1.00;;;;;;5106583;28;20441;-79
2024/04/07 00:48:00;;;;;;;40.80;32.40;;;16.20;1.00;;;;;;5109761;27;20849;-80
2024/04/07 00:50:28;;;;;;;42.00;36.50;;;16.20;1.00;;;;;;5106015;27;20977;-80
2024/04/07 00:52:56;;;;;;;36.17;32.27;;;16.10;1.00;;;;;;5106669;27;20459;-80
2024/04/07 00:55:22;;;;;;;27.53;23.30;;;16.10;1.00;;;;;;5109078;28;20454;-80
2024/04/07 00:57:49;;;;;;;46.27;41.27;;;16.10;1.00;;;;;;5107974;28;20456;-80
2024/04/07 01:00:15;;;;;;;35.73;30.87;;;16.00;1.00;;;;;;5109241;27;20454;-80
2024/04/07 01:02:42;;;;;;;21.23;18.90;;;16.10;1.00;;;;;;5112618;27;20470;-80
2024/04/07 01:05:08;;;;;;;27.57;23.80;;;16.00;1.00;;;;;;5104688;28;20478;-79
2024/04/07 01:07:37;;;;;;;35.30;31.60;;;16.00;1.00;;;;;;5105853;28;20449;-84
2024/04/07 01:10:07;;;;;;;24.27;21.70;;;16.00;1.00;;;;;;5106540;27;20424;-84
2024/04/07 01:12:33;;;;;;;22.07;19.80;;;16.00;1.00;;;;;;5109154;28;20484;-80
2024/04/07 01:15:00;;;;;;;22.07;19.87;;;16.00;1.00;;;;;;5108703;28;20832;-81
2024/04/07 01:17:27;;;;;;;35.57;31.67;;;16.00;1.00;;;;;;5109253;27;20437;-81
2024/04/07 01:19:54;;;;;;;21.37;19.07;;;16.00;1.00;;;;;;5107846;27;20429;-80
2024/04/07 01:22:22;;;;;;;21.87;19.57;;;16.00;1.00;;;;;;5109745;27;20472;-81
2024/04/07 01:24:49;;;;;;;10.60;9.50;;;15.90;1.00;;;;;;5104969;27;20552;-80
2024/04/07 01:27:16;;;;;;;16.53;14.60;;;15.90;1.00;;;;;;5105596;27;20944;-82
2024/04/07 01:29:42;;;;;;;21.77;17.73;;;15.80;1.00;;;;;;5105897;28;20477;-79
2024/04/07 01:32:09;;;;;;;17.63;15.83;;;15.80;1.00;;;;;;5107603;27;20465;-81
2024/04/07 01:34:35;;;;;;;12.10;9.80;;;15.70;1.00;;;;;;5106171;27;20478;-75
2024/04/07 01:37:02;;;;;;;13.80;12.40;;;15.80;1.00;;;;;;5101305;28;20486;-76
2024/04/07 01:39:28;;;;;;;14.57;13.17;;;15.70;1.00;;;;;;5104375;27;20719;-75
2024/04/07 01:41:57;;;;;;;12.97;11.07;;;15.70;1.00;;;;;;5103473;27;20466;-75
2024/04/07 01:44:22;;;;;;;13.80;12.40;;;15.80;1.00;;;;;;5103932;27;20524;-76
2024/04/07 01:46:49;;;;;;;14.10;11.80;;;15.80;1.00;;;;;;5107033;28;20539;-75
2024/04/07 01:49:15;;;;;;;15.17;13.50;;;15.70;1.00;;;;;;5103286;27;21076;-76
2024/04/07 01:51:42;;;;;;;14.47;12.70;;;15.70;1.00;;;;;;5107451;27;20465;-76
2024/04/07 01:54:08;;;;;;;14.07;12.47;;;15.60;1.00;;;;;;5103435;27;20561;-76
2024/04/07 01:56:35;;;;;;;10.93;9.83;;;15.70;1.00;;;;;;5104605;27;20450;-76
2024/04/07 01:59:03;;;;;;;11.23;9.93;;;15.70;1.00;;;;;;5106078;27;20468;-76
2024/04/07 02:01:32;;;;;;;12.27;10.97;;;15.70;1.00;;;;;;5105194;27;20503;-75
2024/04/07 02:03:58;;;;;;;10.47;9.43;;;15.70;1.00;;;;;;5101820;28;20531;-75
2024/04/07 02:06:25;;;;;;;12.30;11.10;;;15.70;1.00;;;;;;5103528;28;21531;-76
2024/04/07 02:08:51;;;;;;;11.60;10.40;;;15.70;1.00;;;;;;5107244;27;20460;-76
2024/04/07 02:11:18;;;;;;;9.30;8.40;;;15.70;1.00;;;;;;5105116;27;20474;-78
2024/04/07 02:13:44;;;;;;;9.07;8.17;;;15.70;1.00;;;;;;5106201;27;20507;-74
2024/04/07 02:16:12;;;;;;;7.47;6.83;;;15.70;1.00;;;;;;5105581;27;21035;-75
2024/04/07 02:18:38;;;;;;;10.00;7.97;;;15.60;1.00;;;;;;5106572;27;20957;-75
2024/04/07 02:21:05;;;;;;;9.67;6.93;;;15.50;1.00;;;;;;5103000;27;20607;-75
2024/04/07 02:23:31;;;;;;;6.03;5.43;;;15.50;1.00;;;;;;5106465;28;20445;-76
2024/04/07 02:25:59;;;;;;;7.03;6.13;;;15.40;1.00;;;;;;5107655;27;20838;-75
2024/04/07 02:28:27;;;;;;;6.60;5.90;;;15.30;1.00;;;;;;5106933;28;20466;-75
2024/04/07 02:30:54;;;;;;;8.40;7.70;;;15.30;1.00;;;;;;5105292;28;20466;-75
2024/04/07 02:33:21;;;;;;;7.70;6.10;;;15.30;1.00;;;;;;5108096;27;20531;-77
2024/04/07 02:35:48;;;;;;;7.60;6.37;;;15.30;1.00;;;;;;5096484;28;20446;-77
2024/04/07 02:38:14;;;;;;;6.33;5.83;;;15.20;1.00;;;;;;5108231;27;20454;-75
2024/04/07 02:40:42;;;;;;;6.20;5.60;;;15.30;1.00;;;;;;5108178;27;20446;-77
2024/04/07 02:43:08;;;;;;;6.27;5.77;;;15.30;1.00;;;;;;5106721;27;21012;-80
2024/04/07 02:48:20;;;;;;;5.73;5.23;;;15.40;1.00;;;;;;5107434;28;20425;-82
2024/04/07 02:50:49;;;;;;;6.20;5.63;;;15.30;1.00;;;;;;5104924;28;20492;-80
2024/04/07 02:53:18;;;;;;;8.30;7.50;;;15.40;1.00;;;;;;5095020;27;20512;-79
2024/04/07 02:55:44;;;;;;;8.20;6.90;;;15.40;1.00;;;;;;5103530;27;20477;-80
2024/04/07 02:58:11;;;;;;;6.97;6.37;;;15.40;1.00;;;;;;5102707;27;20438;-80
2024/04/07 03:00:37;;;;;;;6.87;6.17;;;15.40;1.00;;;;;;5108732;28;20450;-80
2024/04/07 03:03:05;;;;;;;6.43;5.70;;;15.40;1.00;;;;;;5107935;27;20461;-80
2024/04/07 03:05:31;;;;;;;6.70;6.10;;;15.40;1.00;;;;;;5109046;27;20515;-78
2024/04/07 03:07:59;;;;;;;10.10;6.33;;;15.40;1.00;;;;;;5104308;27;20504;-82
2024/04/07 03:10:25;;;;;;;7.83;7.13;;;15.30;1.00;;;;;;5104679;27;20448;-83
2024/04/07 03:12:52;;;;;;;6.77;6.10;;;15.30;1.00;;;;;;5109180;28;20491;-80
2024/04/07 03:15:18;;;;;;;8.00;7.20;;;15.30;1.00;;;;;;5109134;27;20458;-80
2024/04/07 03:17:45;;;;;;;8.70;7.17;;;15.30;1.00;;;;;;5107374;27;20466;-80
2024/04/07 03:20:12;;;;;;;9.20;8.07;;;15.20;1.00;;;;;;5109038;27;20454;-80
2024/04/07 03:22:39;;;;;;;8.10;7.30;;;15.20;1.00;;;;;;5105902;28;20881;-80
2024/04/07 03:25:08;;;;;;;9.40;7.93;;;15.20;1.00;;;;;;5106182;27;20495;-81
2024/04/07 03:27:35;;;;;;;7.57;6.90;;;15.20;1.00;;;;;;5108501;28;20458;-81
2024/04/07 03:30:01;;;;;;;9.80;8.80;;;15.20;1.00;;;;;;5107421;28;20977;-80
2024/04/07 03:32:28;;;;;;;11.83;10.47;;;15.20;1.00;;;;;;5107893;27;20468;-80
2024/04/07 03:34:55;;;;;;;9.90;8.97;;;15.20;1.00;;;;;;5105680;28;21227;-80
2024/04/07 03:37:25;;;;;;;7.97;7.23;;;15.20;1.00;;;;;;5108318;28;20457;-80
2024/04/07 03:39:52;;;;;;;7.43;6.63;;;15.20;1.00;;;;;;5103307;27;20516;-77
2024/04/07 03:42:21;;;;;;;6.57;6.00;;;15.20;1.00;;;;;;5107480;27;20454;-81
2024/04/07 03:44:48;;;;;;;6.57;5.97;;;15.30;1.00;;;;;;5104642;27;20460;-78
2024/04/07 03:47:15;;;;;;;6.33;5.73;;;15.30;1.00;;;;;;5107591;28;20502;-82
2024/04/07 03:49:43;;;;;;;6.50;5.90;;;15.40;1.00;;;;;;5111818;27;20484;-80
2024/04/07 03:52:09;;;;;;;6.40;5.50;;;15.40;1.00;;;;;;5106191;28;20459;-79
2024/04/07 03:54:35;;;;;;;7.00;6.40;;;15.40;1.00;;;;;;5105241;28;20504;-75
2024/04/07 03:57:03;;;;;;;8.50;6.87;;;15.40;1.00;;;;;;5104827;28;20449;-74
2024/04/07 03:59:30;;;;;;;6.23;5.50;;;15.30;1.00;;;;;;5104521;27;20984;-74
2024/04/07 04:02:00;;;;;;;7.90;7.20;;;15.30;1.00;;;;;;5104292;27;20470;-74
2024/04/07 04:04:26;;;;;;;7.13;6.40;;;15.30;1.00;;;;;;5099320;27;20454;-74
2024/04/07 04:06:53;;;;;;;10.60;6.73;;;15.30;1.00;;;;;;5103955;27;20563;-78
2024/04/07 04:09:19;;;;;;;7.27;6.63;;;15.30;1.00;;;;;;5104273;27;20470;-75
2024/04/07 04:11:46;;;;;;;8.67;7.33;;;15.20;1.00;;;;;;5105654;27;20505;-74
2024/04/07 04:14:12;;;;;;;8.37;7.07;;;15.20;1.00;;;;;;5107492;27;20456;-74
2024/04/07 04:16:42;;;;;;;7.20;6.60;;;14.90;1.00;;;;;;5104254;27;20494;-76
2024/04/07 04:19:09;;;;;;;7.53;6.77;;;14.80;1.00;;;;;;5108187;28;20576;-75
2024/04/07 04:21:36;;;;;;;7.53;6.63;;;14.60;1.00;;;;;;5108243;27;20472;-75
2024/04/07 04:24:03;;;;;;;8.93;6.97;;;14.50;1.00;;;;;;5107403;27;20496;-75
2024/04/07 04:26:30;;;;;;;7.73;7.03;;;14.40;1.00;;;;;;5106643;27;20566;-75
2024/04/07 04:28:56;;;;;;;7.20;6.60;;;14.40;1.00;;;;;;5108577;27;20548;-76
2024/04/07 04:31:23;;;;;;;7.73;7.03;;;14.40;1.00;;;;;;5110009;27;20484;-76
2024/04/07 04:33:52;;;;;;;8.50;7.27;;;14.40;1.00;;;;;;5110510;27;20907;-75
2024/04/07 04:36:19;;;;;;;7.13;6.47;;;14.40;1.00;;;;;;5107163;27;20488;-76
2024/04/07 04:38:49;;;;;;;8.03;7.23;;;14.30;1.00;;;;;;5111925;27;20577;-75
2024/04/07 04:41:18;;;;;;;7.80;6.93;;;14.30;1.00;;;;;;5104389;27;20579;-76
2024/04/07 04:43:44;;;;;;;6.97;6.47;;;14.30;1.00;;;;;;5109169;27;20481;-76
2024/04/07 04:46:15;;;;;;;6.60;6.10;;;14.20;1.00;;;;;;5107176;27;20841;-75
2024/04/07 04:48:42;;;;;;;7.53;6.43;;;14.30;1.00;;;;;;5110067;28;20549;-75
2024/04/07 04:51:11;;;;;;;7.13;6.40;;;14.30;1.00;;;;;;5104329;27;20484;-75
2024/04/07 04:53:37;;;;;;;7.17;6.47;;;14.30;1.00;;;;;;5107738;28;20481;-75
2024/04/07 04:56:05;;;;;;;7.33;6.63;;;14.40;1.00;;;;;;5106325;28;20491;-77
2024/04/07 04:58:32;;;;;;;6.20;5.50;;;14.40;1.00;;;;;;5109495;27;20457;-78
2024/04/07 05:00:59;;;;;;;6.33;5.80;;;14.30;1.00;;;;;;5102039;27;20940;-76
2024/04/07 05:03:27;;;;;;;6.30;5.80;;;14.40;1.00;;;;;;5106719;27;20832;-76
2024/04/07 05:05:55;;;;;;;5.50;5.10;;;14.40;1.00;;;;;;5112748;28;20440;-82
2024/04/07 05:08:22;;;;;;;6.70;6.10;;;14.50;1.00;;;;;;5116017;28;20421;-81
2024/04/07 05:10:49;;;;;;;7.17;5.10;;;14.50;1.00;;;;;;5112277;27;20558;-79
2024/04/07 05:13:15;;;;;;;5.47;5.07;;;14.60;1.00;;;;;;5109380;28;20463;-81
2024/04/07 05:15:42;;;;;;;6.00;5.43;;;14.60;1.00;;;;;;5109828;27;20516;-82
2024/04/07 05:18:10;;;;;;;5.70;5.20;;;14.70;1.00;;;;;;5107720;28;20418;-84
2024/04/07 05:20:37;;;;;;;6.60;6.00;;;14.70;1.00;;;;;;5113423;28;20449;-80
2024/04/07 05:23:04;;;;;;;6.70;5.97;;;14.80;1.00;;;;;;5109328;27;20572;-81
2024/04/07 05:25:32;;;;;;;11.43;5.50;;;14.80;1.00;;;;;;5107791;27;20487;-83
2024/04/07 05:27:58;;;;;;;5.93;5.37;;;14.90;1.00;;;;;;5110577;28;20885;-83
2024/04/07 05:30:25;;;;;;;6.50;6.00;;;15.00;1.00;;;;;;5112880;27;21359;-77
2024/04/07 05:32:52;;;;;;;5.77;5.27;;;15.00;1.00;;;;;;5113226;27;20458;-83
2024/04/07 05:35:21;;;;;;;5.00;4.50;;;15.10;1.00;;;;;;5108980;27;20454;-81
2024/04/07 05:37:51;;;;;;;5.23;4.83;;;15.20;1.00;;;;;;5108620;27;20503;-83
2024/04/07 05:40:18;;;;;;;5.30;4.90;;;15.30;1.00;;;;;;5109774;27;20526;-83
2024/04/07 05:42:46;;;;;;;4.70;4.30;;;15.40;1.00;;;;;;5108023;27;20449;-83
2024/04/07 05:45:13;;;;;;;6.30;5.80;;;15.40;1.00;;;;;;5106937;27;20426;-83
2024/04/07 05:47:38;;;;;;;8.47;6.50;;;15.40;1.00;;;;;;5112707;27;21091;-81
2024/04/07 05:50:06;;;;;;;6.20;5.40;;;15.50;1.00;;;;;;5108829;27;20542;-82
2024/04/07 05:52:33;;;;;;;5.00;4.60;;;15.60;1.00;;;;;;5109631;28;20543;-83
2024/04/07 05:55:00;;;;;;;5.60;5.10;;;15.70;1.00;;;;;;5109523;28;20465;-81
2024/04/07 05:57:26;;;;;;;5.67;5.10;;;15.80;1.00;;;;;;5112193;27;20453;-82
2024/04/07 05:59:56;;;;;;;4.70;4.40;;;15.90;1.00;;;;;;5108554;27;20462;-82
2024/04/07 06:02:25;;;;;;;5.70;5.20;;;16.10;1.00;;;;;;5107117;27;20576;-83
2024/04/07 06:04:55;;;;;;;5.53;4.97;;;16.30;1.00;;;;;;5092049;27;20477;-83
2024/04/07 06:07:21;;;;;;;5.20;4.80;;;16.40;1.00;;;;;;5111289;27;20508;-82
2024/04/07 06:09:51;;;;;;;5.27;4.77;;;16.60;1.00;;;;;;5109980;27;20494;-83
2024/04/07 06:12:18;;;;;;;5.80;5.00;;;16.70;1.00;;;;;;5110046;27;20452;-83
2024/04/07 06:14:47;;;;;;;6.83;5.33;;;16.80;1.00;;;;;;5109541;27;20457;-82
2024/04/07 06:17:16;;;;;;;4.97;4.57;;;16.90;1.00;;;;;;5109545;27;21257;-82
2024/04/07 06:19:43;;;;;;;5.30;4.80;;;17.10;1.00;;;;;;5110630;27;20533;-82
2024/04/07 06:22:09;;;;;;;5.07;4.20;;;17.20;1.00;;;;;;5109146;27;20528;-82
2024/04/07 06:24:39;;;;;;;4.93;4.53;;;17.40;1.00;;;;;;5109030;27;20562;-81
2024/04/07 06:27:11;;;;;;;5.70;5.30;;;17.50;1.00;;;;;;5107505;27;20456;-82
2024/04/07 06:29:38;;;;;;;5.00;4.60;;;17.70;1.00;;;;;;5091285;28;20426;-82
2024/04/07 06:32:05;;;;;;;4.87;4.40;;;17.80;1.00;;;;;;5111705;27;20502;-82
2024/04/07 06:34:33;;;;;;;5.10;4.60;;;18.00;1.00;;;;;;5111523;27;20461;-83
2024/04/07 06:36:59;;;;;;;4.80;4.40;;;18.20;1.00;;;;;;5106756;27;20441;-84
2024/04/07 06:39:26;;;;;;;4.27;3.87;;;18.40;1.00;;;;;;5111974;27;20553;-84
2024/04/07 06:41:52;;;;;;;4.93;4.33;;;18.70;1.00;;;;;;5110512;27;20539;-80
2024/04/07 06:44:20;;;;;;;4.40;4.00;;;18.80;1.00;;;;;;5112309;27;20459;-82
2024/04/07 06:46:46;;;;;;;4.97;4.13;;;19.00;1.00;;;;;;5111299;27;20543;-79
2024/04/07 06:49:13;;;;;;;4.83;4.30;;;19.00;1.00;;;;;;5111540;27;20980;-81
2024/04/07 06:51:41;;;;;;;4.87;4.37;;;19.20;1.00;;;;;;5108449;27;20917;-81
2024/04/07 06:54:08;;;;;;;5.07;3.70;;;19.40;1.00;;;;;;5108911;27;20562;-80
2024/04/07 06:56:34;;;;;;;3.53;3.23;;;19.60;1.00;;;;;;5104797;27;20457;-81
2024/04/07 06:59:01;;;;;;;4.00;3.70;;;19.50;1.00;;;;;;5103346;27;20895;-81
2024/04/07 07:01:28;;;;;;;4.03;3.73;;;19.60;1.00;;;;;;5106089;27;20502;-80
2024/04/07 07:03:55;;;;;;;4.00;3.60;;;19.80;1.00;;;;;;5109578;27;20447;-80
2024/04/07 07:06:21;;;;;;;4.03;3.60;;;20.00;1.00;;;;;;5105750;27;20422;-79
2024/04/07 07:08:51;;;;;;;5.93;4.20;;;20.10;1.00;;;;;;5095764;27;20542;-82
2024/04/07 07:11:17;;;;;;;4.63;4.23;;;20.30;1.00;;;;;;5106047;27;20539;-79
2024/04/07 07:13:44;;;;;;;4.17;3.87;;;20.40;1.00;;;;;;5107486;27;20901;-82
2024/04/07 07:16:10;;;;;;;4.27;3.87;;;20.50;1.00;;;;;;5101567;27;20864;-80
2024/04/07 07:18:40;;;;;;;4.20;3.70;;;20.70;1.00;;;;;;5109750;28;22335;-81
2024/04/07 07:21:06;;;;;;;4.47;4.07;;;20.80;1.00;;;;;;5109781;27;20541;-81
2024/04/07 07:23:34;;;;;;;5.37;4.27;;;20.90;1.00;;;;;;5107804;28;20989;-80
2024/04/07 07:26:02;;;;;;;3.57;3.17;;;21.10;1.00;;;;;;5106969;27;20467;-81
2024/04/07 07:28:29;;;;;;;4.83;3.93;;;21.10;1.00;;;;;;5111317;28;20471;-80
2024/04/07 07:30:56;;;;;;;3.93;3.63;;;21.20;1.00;;;;;;5107253;27;20565;-82
2024/04/07 07:33:25;;;;;;;4.70;3.70;;;21.40;1.00;;;;;;5110014;27;21456;-83
2024/04/07 07:35:52;;;;;;;4.27;3.90;;;21.50;1.00;;;;;;5103216;27;20518;-80
2024/04/07 07:38:19;;;;;;;4.20;3.80;;;21.60;1.00;;;;;;5108599;28;20977;-78
2024/04/07 07:40:45;;;;;;;3.53;3.33;;;21.70;1.00;;;;;;5104142;28;20443;-78
2024/04/07 07:43:15;;;;;;;4.30;4.00;;;21.80;1.00;;;;;;5107711;28;20446;-77
2024/04/07 07:45:47;;;;;;;3.90;3.60;;;22.00;1.00;;;;;;5105610;28;20477;-77
2024/04/07 07:48:14;;;;;;;4.43;4.03;;;22.20;1.00;;;;;;5102708;28;20464;-77
2024/04/07 07:50:40;;;;;;;3.67;3.33;;;22.30;1.00;;;;;;5109362;27;20528;-79
2024/04/07 07:53:11;;;;;;;5.90;3.53;;;22.60;1.00;;;;;;5090823;27;20488;-77
2024/04/07 07:55:38;;;;;;;3.80;3.33;;;22.90;1.00;;;;;;5109080;27;21043;-78
2024/04/07 07:58:05;;;;;;;3.77;3.50;;;23.00;1.00;;;;;;5097344;27;20478;-78
2024/04/07 08:00:32;;;;;;;3.47;3.17;;;23.30;1.00;;;;;;5112308;27;20439;-76
2024/04/07 08:03:03;;;;;;;3.00;2.80;;;23.40;1.00;;;;;;5108699;27;21010;-77
2024/04/07 08:05:29;;;;;;;3.80;3.50;;;23.50;1.00;;;;;;5109576;27;20464;-77
2024/04/07 08:07:59;;;;;;;3.00;2.80;;;23.60;1.00;;;;;;5105175;28;20536;-77
2024/04/07 08:10:31;;;;;;;2.97;2.67;;;23.60;1.00;;;;;;5107029;28;20468;-77
2024/04/07 08:12:58;;;;;;;8.10;3.63;;;23.70;1.00;;;;;;5108081;27;20885;-77
2024/04/07 08:15:25;;;;;;;5.53;3.23;;;23.80;1.00;;;;;;5097135;27;20475;-76
2024/04/07 08:17:54;;;;;;;3.83;3.20;;;23.90;1.00;;;;;;5106322;28;21220;-80
2024/04/07 08:20:23;;;;;;;4.20;2.90;;;23.90;1.00;;;;;;5105387;27;20842;-77
2024/04/07 08:22:50;;;;;;;3.23;2.93;;;24.00;1.00;;;;;;5109022;27;20538;-76
2024/04/07 08:25:17;;;;;;;3.97;2.80;;;23.90;1.00;;;;;;5111475;27;20455;-77
2024/04/07 08:30:32;;;;;;;4.40;3.07;;;24.10;1.00;;;;;;5106971;27;20447;-76
2024/04/07 08:33:38;;;;;;;3.20;2.80;;;24.20;1.00;;;;;;5097578;27;20869;-76
2024/04/07 08:36:08;;;;;;;3.17;2.50;;;24.30;1.00;;;;;;5105922;27;20464;-76
2024/04/07 08:38:35;;;;;;;3.77;2.70;;;24.30;1.00;;;;;;5084024;28;20472;-77
2024/04/07 08:41:09;;;;;;;2.77;2.30;;;24.60;1.00;;;;;;5093911;27;20584;-77
2024/04/07 08:43:39;;;;;;;2.87;2.67;;;24.90;1.00;;;;;;5103607;27;20454;-76
2024/04/07 08:46:10;;;;;;;2.83;2.63;;;25.10;1.00;;;;;;5105364;27;20537;-79
2024/04/07 08:48:42;;;;;;;2.63;2.43;;;25.30;1.00;;;;;;5109976;27;20482;-78
2024/04/07 08:51:10;;;;;;;2.67;2.47;;;25.60;1.00;;;;;;5108107;27;20513;-80
2024/04/07 08:53:39;;;;;;;5.50;2.67;;;25.70;1.00;;;;;;5109269;27;20456;-79
2024/04/07 08:56:07;;;;;;;2.57;2.20;;;25.90;1.00;;;;;;5103263;27;20497;-79
2024/04/07 08:58:37;;;;;;;4.53;2.53;;;26.10;1.00;;;;;;5100990;27;20488;-79
2024/04/07 09:01:04;;;;;;;5.30;2.30;;;26.20;1.00;;;;;;5111259;27;20456;-80
2024/04/07 09:03:35;;;;;;;2.00;1.80;;;26.00;1.00;;;;;;5111047;28;20440;-79
2024/04/07 09:06:04;;;;;;;2.30;2.07;;;25.80;1.00;;;;;;5108197;27;20459;-78
2024/04/07 09:08:35;;;;;;;2.20;2.00;;;25.80;1.00;;;;;;5113847;27;20470;-78
2024/04/07 09:11:08;;;;;;;5.67;2.30;;;25.70;1.00;;;;;;5102280;28;20452;-78
2024/04/07 09:13:38;;;;;;;3.23;2.50;;;25.80;1.00;;;;;;5090527;28;20878;-79
2024/04/07 09:16:07;;;;;;;4.50;2.80;;;26.00;1.00;;;;;;5109884;27;20526;-79
2024/04/07 09:18:34;;;;;;;4.87;2.67;;;26.30;1.00;;;;;;5112457;27;20951;-80
2024/04/07 09:21:00;;;;;;;4.20;2.17;;;26.60;1.00;;;;;;5108551;27;20469;-79
2024/04/07 09:23:31;;;;;;;5.30;2.20;;;27.00;1.00;;;;;;5110386;28;21244;-78
2024/04/07 09:25:57;;;;;;;3.37;2.70;;;27.20;1.00;;;;;;5110900;27;20486;-79
2024/04/07 09:28:29;;;;;;;4.83;2.80;;;27.50;1.00;;;;;;5108968;27;20964;-81
2024/04/07 09:30:55;;;;;;;3.77;2.27;;;27.80;1.00;;;;;;5109425;27;21001;-78
2024/04/07 09:33:25;;;;;;;5.40;2.20;;;28.30;1.00;;;;;;5108536;27;20457;-78
2024/04/07 09:35:51;;;;;;;5.10;2.70;;;28.50;1.00;;;;;;5105001;27;20466;-80
2024/04/07 09:38:20;;;;;;;3.00;2.00;;;28.50;1.00;;;;;;5108081;28;20475;-79
2024/04/07 09:40:47;;;;;;;4.10;3.03;;;28.60;1.00;;;;;;5110233;27;20452;-79
2024/04/07 09:43:18;;;;;;;4.50;2.50;;;28.70;1.00;;;;;;5108129;27;20536;-79
2024/04/07 09:45:48;;;;;;;3.90;2.53;;;29.10;1.00;;;;;;5111239;27;20448;-80
2024/04/07 09:48:20;;;;;;;2.80;2.23;;;29.10;1.00;;;;;;5108668;27;20499;-79
2024/04/07 09:50:56;;;;;;;2.73;2.43;;;28.90;1.00;;;;;;5106132;27;20456;-81
2024/04/07 09:53:34;;;;;;;5.80;3.43;;;28.50;1.00;;;;;;5113945;28;20420;-79
2024/04/07 09:56:03;;;;;;;5.17;2.30;;;28.50;1.00;;;;;;5112446;27;20451;-83
2024/04/07 09:58:31;;;;;;;2.80;2.60;;;28.30;1.00;;;;;;5117019;27;20651;-83
2024/04/07 10:00:58;;;;;;;3.07;2.60;;;28.30;1.00;;;;;;5112363;27;22182;-83
2024/04/07 10:03:25;;;;;;;5.87;2.17;;;28.20;1.00;;;;;;5119842;27;20451;-82
2024/04/07 10:05:51;;;;;;;3.47;2.30;;;28.20;1.00;;;;;;5111849;27;20460;-79
2024/04/07 10:08:21;;;;;;;2.70;2.50;;;27.90;1.00;;;;;;5104239;27;20513;-83
2024/04/07 10:10:47;;;;;;;3.30;2.10;;;27.60;1.00;;;;;;5111937;27;21174;-83
2024/04/07 10:13:24;;;;;;;3.70;2.50;;;27.40;1.00;;;;;;5114721;27;20433;-82
2024/04/07 10:15:54;;;;;;;5.60;2.43;;;27.20;1.00;;;;;;5118624;27;20423;-83
2024/04/07 10:18:21;;;;;;;3.90;2.57;;;27.00;1.00;;;;;;5107951;27;20458;-83
2024/04/07 10:20:53;;;;;;;4.63;2.37;;;27.00;1.00;;;;;;5115302;27;20442;-83
2024/04/07 10:23:20;;;;;;;3.37;2.40;;;27.20;1.00;;;;;;5093178;28;20502;-81
2024/04/07 10:25:47;;;;;;;3.07;2.53;;;27.30;1.00;;;;;;5111231;27;20477;-79
2024/04/07 10:28:18;;;;;;;5.90;2.63;;;27.30;1.00;;;;;;5112803;27;20456;-80
2024/04/07 10:30:51;;;;;;;3.37;2.43;;;27.20;1.00;;;;;;5111995;27;20460;-82
2024/04/07 10:33:22;;;;;;;3.53;2.73;;;27.40;1.00;;;;;;5114733;27;20467;-82
2024/04/07 10:35:58;;;;;;;5.80;2.83;;;27.50;1.00;;;;;;5113859;27;21408;-79
2024/04/07 10:38:25;;;;;;;2.67;2.47;;;27.50;1.00;;;;;;5114658;27;20473;-82
2024/04/07 10:40:56;;;;;;;4.67;2.33;;;27.70;1.00;;;;;;5117082;27;21185;-82
2024/04/07 10:43:27;;;;;;;3.33;3.03;;;27.50;1.00;;;;;;5112465;27;20479;-87
2024/04/07 10:45:54;;;;;;;3.33;2.40;;;27.10;1.00;;;;;;5109682;27;20471;-81
2024/04/07 10:48:23;;;;;;;5.23;3.10;;;26.80;1.00;;;;;;5114994;27;20473;-83
2024/04/07 10:50:59;;;;;;;3.97;3.10;;;26.50;1.00;;;;;;5113004;27;20462;-80
2024/04/07 10:53:27;;;;;;;3.53;2.30;;;26.20;1.00;;;;;;5109954;27;20440;-78
2024/04/07 10:55:53;;;;;;;4.03;2.80;;;26.10;1.00;;;;;;5095528;27;20484;-81
2024/04/07 10:58:20;;;;;;;3.50;2.57;;;26.00;1.00;;;;;;5109501;27;20507;-82
2024/04/07 11:00:50;;;;;;;3.80;2.73;;;26.00;1.00;;;;;;5112509;27;20234;-82
2024/04/07 11:03:17;;;;;;;5.27;2.67;;;26.10;1.00;;;;;;5113816;28;20472;-82
2024/04/07 11:05:43;;;;;;;4.63;2.57;;;26.10;1.00;;;;;;5112602;27;20486;-82
2024/04/07 11:08:11;;;;;;;9.47;3.63;;;26.00;1.00;;;;;;5119413;27;20472;-81
2024/04/07 11:10:38;;;;;;;2.97;2.57;;;26.00;1.00;;;;;;5112700;27;21205;-82
2024/04/07 11:13:07;;;;;;;5.17;2.60;;;26.40;1.00;;;;;;5107555;27;20433;-83
2024/04/07 11:15:34;;;;;;;3.73;2.93;;;26.80;1.00;;;;;;5104453;27;20526;-81
2024/04/07 11:18:13;;;;;;;4.10;2.43;;;27.30;1.00;;;;;;5111353;27;20443;-83
2024/04/07 11:20:41;;;;;;;4.53;2.70;;;27.70;1.00;;;;;;5106260;27;21057;-81
2024/04/07 11:23:10;;;;;;;3.70;2.70;;;27.80;1.00;;;;;;5114562;27;20452;-82
2024/04/07 11:25:37;;;;;;;2.80;2.60;;;27.70;1.00;;;;;;5115943;27;20481;-82
2024/04/07 11:28:05;;;;;;;3.57;3.00;;;27.60;1.00;;;;;;5111727;27;20471;-83
2024/04/07 11:30:33;;;;;;;3.83;2.27;;;27.70;1.00;;;;;;5113461;27;20510;-83
2024/04/07 11:33:05;;;;;;;4.80;3.17;;;27.70;1.00;;;;;;5114644;27;20562;-84
2024/04/07 11:35:32;;;;;;;3.23;2.70;;;27.90;1.00;;;;;;5112587;27;20415;-82
2024/04/07 11:37:59;;;;;;;8.07;7.30;;;28.30;1.00;;;;;;5112426;28;21060;-78
2024/04/07 11:40:26;;;;;;;4.53;2.90;;;29.00;1.00;;;;;;5117022;27;20957;-82
2024/04/07 11:42:53;;;;;;;2.83;2.33;;;30.50;1.00;;;;;;5110995;27;20469;-83
2024/04/07 11:45:20;;;;;;;6.47;3.07;;;32.00;1.00;;;;;;5113037;27;20454;-83
2024/04/07 11:47:47;;;;;;;3.83;2.83;;;33.30;1.00;;;;;;5114227;27;20480;-82
2024/04/07 11:50:17;;;;;;;2.80;2.60;;;34.50;1.00;;;;;;5107294;27;20440;-82
2024/04/07 11:52:44;;;;;;;4.40;2.90;;;35.30;1.00;;;;;;5109529;27;20477;-83
2024/04/07 11:55:10;;;;;;;3.40;2.53;;;36.10;1.00;;;;;;5115091;27;20484;-82
2024/04/07 11:57:37;;;;;;;3.60;3.20;;;36.80;1.00;;;;;;5107972;27;21020;-82
2024/04/07 12:00:04;;;;;;;4.83;3.10;;;37.20;1.00;;;;;;5109405;27;20449;-82
2024/04/07 12:02:33;;;;;;;4.10;2.60;;;37.60;1.00;;;;;;5109022;27;20872;-83
2024/04/07 12:04:59;;;;;;;3.50;3.00;;;37.40;1.00;;;;;;5110238;27;20515;-84
2024/04/07 12:07:28;;;;;;;4.80;2.87;;;36.70;1.00;;;;;;5105656;27;20469;-83
2024/04/07 12:09:55;;;;;;;4.50;3.20;;;36.00;1.00;;;;;;5112099;27;20482;-83
2024/04/07 12:12:23;;;;;;;2.53;2.33;;;35.90;1.00;;;;;;5110882;27;20462;-82
2024/04/07 12:14:49;;;;;;;5.80;2.30;;;36.30;1.00;;;;;;5107626;27;20497;-81
2024/04/07 12:17:16;;;;;;;3.40;2.40;;;36.10;1.00;;;;;;5107632;27;20495;-86
2024/04/07 12:19:42;;;;;;;4.10;2.60;;;36.00;1.00;;;;;;5109864;27;20700;-83
2024/04/07 12:22:17;;;;;;;4.17;2.97;;;36.10;1.00;;;;;;5108502;27;21035;-82
2024/04/07 12:24:48;;;;;;;2.70;1.90;;;35.70;1.00;;;;;;5102132;27;20239;-82
2024/04/07 12:27:15;;;;;;;3.60;2.53;;;36.00;1.00;;;;;;5111393;27;20553;-84
2024/04/07 12:29:43;;;;;;;2.40;2.10;;;36.10;1.00;;;;;;5107783;27;20454;-82
2024/04/07 12:32:11;;;;;;;3.67;2.30;;;36.70;1.00;;;;;;5107497;27;20503;-82
2024/04/07 12:34:37;;;;;;;3.70;2.67;;;36.90;1.00;;;;;;5107071;27;20453;-83
2024/04/07 12:37:05;;;;;;;5.77;2.60;;;37.30;1.00;;;;;;5115111;27;20445;-83
2024/04/07 12:39:32;;;;;;;3.20;2.30;;;37.70;1.00;;;;;;5114348;27;20242;-83
2024/04/07 12:42:01;;;;;;;3.90;2.40;;;37.60;1.00;;;;;;5112679;27;20417;-83
2024/04/07 12:44:27;;;;;;;3.80;2.57;;;37.40;1.00;;;;;;5114607;28;20453;-83
2024/04/07 12:46:57;;;;;;;7.23;2.77;;;37.30;1.00;;;;;;5113429;27;20501;-83
2024/04/07 12:49:23;;;;;;;4.90;3.00;;;37.60;1.00;;;;;;5118242;27;20243;-84
2024/04/07 12:51:50;;;;;;;4.93;2.80;;;38.00;1.00;;;;;;5095291;27;20497;-83
2024/04/07 12:54:17;;;;;;;3.30;2.10;;;38.10;1.00;;;;;;5115021;28;20451;-84
2024/04/07 12:56:47;;;;;;;3.57;2.53;;;37.70;1.00;;;;;;5103623;27;20517;-84
2024/04/07 12:59:15;;;;;;;5.63;3.13;;;37.30;1.00;;;;;;5108951;27;20468;-84
2024/04/07 13:01:43;;;;;;;5.53;2.53;;;36.40;1.00;;;;;;5093248;28;21034;-89